AirNav   Air Wisconsin Up To $57,000 Bonus
 
 992 users online  

1FL1 America's Chopper Pilots Heliport
Kissimmee, Florida, USA

GOING TO KISSIMMEE?


FAA INFORMATION EFFECTIVE 03 DECEMBER 2020

Location

FAA Identifier: 1FL1
Lat/Long: 28-18-43.7100N 081-27-57.3700W
28-18.728500N 081-27.956167W
28.3121417,-81.4659361
(estimated)
Elevation: 75 ft. / 23 m (estimated)
Variation: 04W (1995)
From city: 1 mile E of KISSIMMEE, FL
Time zone: UTC -5 (UTC -4 during Daylight Saving Time)
Zip code: 34746

Heliport Operations

Heliport use: Private use. Permission required prior to landing
Activation date: 10/1999
Control tower: no
ARTCC: JACKSONVILLE CENTER
FSS: SAINT PETERSBURG FLIGHT SERVICE STATION
Attendance: 0900-2000
Wind indicator: yes
Segmented circle: no

Heliport Communications

WX AWOS-3PT at ISM (2.0 nm SE): 128.775 (407-847-0533)
WX ASOS at MCO (11 nm NE): PHONE 407-855-5235
WX ASOS at ORL (16 nm NE): 127.25 (407-658-6753)

Nearby radio navigation aids

VOR radial/distance  VOR name  Freq  Var
ORLr207/15.5ORLANDO VORTAC112.2000E
LALr055/35.0LAKELAND VORTAC116.0001E

Heliport Services

Runway Information

Helipad H1

Dimensions: 20 x 20 ft. / 6 x 6 m
Surface: wood
Latitude: 28-18.728500N
Longitude: 081-27.956167W
Elevation: 75.0 ft.
Traffic pattern: leftleft

Heliport Ownership and Management from official FAA records

Ownership: Privately-owned
Owner: RICHARD BRONSON
4601 W. IRLO BRONSON MEM HWY
KISSIMMEE, FL 34746
Phone 813-936-2677
Manager: RICHARD BRONSON
4601 W. IRLO BRONSON MEM HWY
KISSIMMEE, FL 34746
Phone 813-936-2677

Heliport Operational Statistics

Aircraft based on the field: 1
Helicopters: 1
    

Additional Remarks

FOR CD CTC JACKSONVILLE ARTCC AT 904-845-1592.

Instrument Procedures

There are no published instrument procedures at 1FL1.

Some nearby airports with instrument procedures:

KISM - Kissimmee Gateway Airport (2 nm SE)
KMCO - Orlando International Airport (11 nm NE)
KORL - Executive Airport (16 nm NE)
KGIF - Winter Haven Regional Airport (21 nm SW)
X04 - Orlando Apopka Airport (24 nm N)
 
Loc | Ops | Rwys | IFR | FBO | Links
Com | Nav | Svcs | Stats | Notes


 
Area around 1FL1 (America's Chopper Pilots Heliport)
 
Road maps at: MapQuest Bing Google
 
Aerial photo
No photo
 
Sectional chart

 
Airport distance calculator
Flying to America's Chopper Pilots Heliport? Find the distance to fly.

From to 1FL1

Sunrise and sunset
Times for 04-Dec-2020
 Local
(UTC-5)
 Zulu
(UTC)
Morning civil twilight06:3911:39
Sunrise07:0512:05
Sunset17:2822:28
Evening civil twilight17:5422:54

Current date and time
Zulu (UTC)  05-Dec-2020 02:47:25
Local (UTC-5)  04-Dec-2020 21:47:25
 
METAR
KISM 
2nm SE 
050156Z 19003KT 10SM OVC120 19/18 A3008 RMK AO2 SLP188 T01940178 PNO $
KMCO 
9nm NE 
050153Z 19004KT 10SM BKN120 OVC160 19/17 A3007 RMK AO2 SLP182 T01940167
KORL 
16nm NE 
050153Z AUTO 24003KT 10SM OVC120 21/17 A3008 RMK AO2 SLP189 T02110167
TAF
KISM 
2nm SE 
041739Z 0418/0518 16008KT P6SM SCT040 SCT120 BKN200 FM050000 18005KT P6SM FEW035 BKN120 FM050600 25003KT P6SM VCSH SCT025 BKN035 FM051200 30005KT P6SM BKN015 BKN025
KMCO 
9nm NE 
042050Z 0421/0524 17008KT P6SM FEW035 SCT120 BKN200 FM050000 18005KT P6SM FEW035 BKN120 FM050600 25003KT P6SM VCSH SCT025 BKN035 FM051200 30005KT P6SM BKN015 BKN025 FM051800 33007KT P6SM SCT025 SCT040
NOTAMs
Click for the latest NOTAMs
NOTAMs are issued by the DoD/FAA and will open in a separate window not controlled by AirNav.

 

 
 

Would you like to see your business listed on this page?

 If your business provides an interesting product or service to pilots, flight crews, aircraft, or users of the America's Chopper Pilots Heliport, you should consider listing it here.  To start the listing process, click on the button below
 
Add a business
 

Other Pages about America's Chopper Pilots Heliport

Update a link
 
Copyright © AirNav, LLC. All rights reserved. Privacy Policy  Contact